sensor_id;sensor_type;location;lat;lon;timestamp;pressure;altitude;pressure_sealevel;temperature;humidity
74675;BME280;63200;48.810;12.352;2023-07-20T00:00:22;97137.88;;;19.11;57.69
74675;BME280;63200;48.810;12.352;2023-07-20T00:02:50;97136.38;;;19.14;57.75
74675;BME280;63200;48.810;12.352;2023-07-20T00:05:16;97089.81;;;18.80;57.82
74675;BME280;63200;48.810;12.352;2023-07-20T00:07:43;97143.28;;;19.08;58.00
74675;BME280;63200;48.810;12.352;2023-07-20T00:10:09;97147.53;;;19.05;58.06
74675;BME280;63200;48.810;12.352;2023-07-20T00:12:34;97144.19;;;19.00;58.12
74675;BME280;63200;48.810;12.352;2023-07-20T00:15:00;97145.09;;;19.04;57.94
74675;BME280;63200;48.810;12.352;2023-07-20T00:17:26;97144.19;;;19.12;57.53
74675;BME280;63200;48.810;12.352;2023-07-20T00:19:51;97148.97;;;19.15;57.30
74675;BME280;63200;48.810;12.352;2023-07-20T00:22:16;97150.69;;;19.20;57.12
74675;BME280;63200;48.810;12.352;2023-07-20T00:24:42;97147.91;;;19.32;56.85
74675;BME280;63200;48.810;12.352;2023-07-20T00:27:07;97147.66;;;19.37;56.47
74675;BME280;63200;48.810;12.352;2023-07-20T00:29:32;97145.06;;;19.44;56.31
74675;BME280;63200;48.810;12.352;2023-07-20T00:31:58;97152.28;;;19.49;56.35
74675;BME280;63200;48.810;12.352;2023-07-20T00:34:24;97139.84;;;19.55;56.13
74675;BME280;63200;48.810;12.352;2023-07-20T00:36:49;97139.16;;;19.58;56.15
74675;BME280;63200;48.810;12.352;2023-07-20T00:39:15;97143.53;;;19.59;56.60
74675;BME280;63200;48.810;12.352;2023-07-20T00:41:40;97148.03;;;19.52;56.98
74675;BME280;63200;48.810;12.352;2023-07-20T00:44:05;97154.22;;;19.48;56.77
74675;BME280;63200;48.810;12.352;2023-07-20T00:46:31;97164.69;;;19.43;57.18
74675;BME280;63200;48.810;12.352;2023-07-20T00:48:57;97134.84;;;19.29;57.05
74675;BME280;63200;48.810;12.352;2023-07-20T00:51:25;97124.97;;;19.28;57.05
74675;BME280;63200;48.810;12.352;2023-07-20T00:53:51;97158.41;;;19.42;57.22
74675;BME280;63200;48.810;12.352;2023-07-20T00:56:17;97085.47;;;18.92;57.26
74675;BME280;63200;48.810;12.352;2023-07-20T00:58:43;97151.00;;;19.30;57.39
74675;BME280;63200;48.810;12.352;2023-07-20T01:01:09;97161.19;;;19.30;57.50
74675;BME280;63200;48.810;12.352;2023-07-20T01:03:35;97154.25;;;19.20;57.73
74675;BME280;63200;48.810;12.352;2023-07-20T01:08:40;97148.91;;;18.99;58.39
74675;BME280;63200;48.810;12.352;2023-07-20T01:11:38;97153.50;;;18.82;58.70
74675;BME280;63200;48.810;12.352;2023-07-20T01:14:07;97136.00;;;18.62;58.88
74675;BME280;63200;48.810;12.352;2023-07-20T01:16:34;97147.91;;;18.67;59.16
74675;BME280;63200;48.810;12.352;2023-07-20T01:18:59;97124.00;;;18.42;59.45
74675;BME280;63200;48.810;12.352;2023-07-20T01:21:32;97150.91;;;18.49;59.76
74675;BME280;63200;48.810;12.352;2023-07-20T01:32:06;97152.16;;;18.27;60.72
74675;BME280;63200;48.810;12.352;2023-07-20T01:34:34;97152.16;;;18.14;61.20
74675;BME280;63200;48.810;12.352;2023-07-20T01:37:01;97159.84;;;18.09;61.54
74675;BME280;63200;48.810;12.352;2023-07-20T01:39:27;97155.78;;;17.94;62.08
74675;BME280;63200;48.810;12.352;2023-07-20T01:41:53;97158.97;;;17.84;62.59
74675;BME280;63200;48.810;12.352;2023-07-20T01:44:18;97151.75;;;17.79;62.76
74675;BME280;63200;48.810;12.352;2023-07-20T01:46:43;97141.56;;;17.79;62.97
74675;BME280;63200;48.810;12.352;2023-07-20T01:49:09;97149.34;;;17.77;63.07
74675;BME280;63200;48.810;12.352;2023-07-20T01:51:34;97150.13;;;17.78;63.30
74675;BME280;63200;48.810;12.352;2023-07-20T01:53:59;97144.78;;;17.81;63.26
74675;BME280;63200;48.810;12.352;2023-07-20T01:56:25;97148.00;;;17.84;63.36
74675;BME280;63200;48.810;12.352;2023-07-20T01:58:50;97141.81;;;17.87;63.36
74675;BME280;63200;48.810;12.352;2023-07-20T02:01:15;97148.56;;;17.89;63.19
74675;BME280;63200;48.810;12.352;2023-07-20T02:03:41;97136.09;;;17.92;63.17
74675;BME280;63200;48.810;12.352;2023-07-20T02:06:06;97127.50;;;17.81;63.10
74675;BME280;63200;48.810;12.352;2023-07-20T02:08:31;97142.72;;;17.91;63.03
74675;BME280;63200;48.810;12.352;2023-07-20T02:10:57;97131.75;;;17.91;62.95
74675;BME280;63200;48.810;12.352;2023-07-20T02:13:22;97129.50;;;17.93;63.02
74675;BME280;63200;48.810;12.352;2023-07-20T02:15:48;97145.47;;;17.91;63.25
74675;BME280;63200;48.810;12.352;2023-07-20T02:18:14;97140.19;;;17.86;63.40
74675;BME280;63200;48.810;12.352;2023-07-20T02:20:40;97138.13;;;17.82;63.49
74675;BME280;63200;48.810;12.352;2023-07-20T02:23:06;97078.31;;;17.30;63.95
74675;BME280;63200;48.810;12.352;2023-07-20T02:25:31;97143.56;;;17.58;64.23
74675;BME280;63200;48.810;12.352;2023-07-20T02:27:56;97148.69;;;17.47;64.68
74675;BME280;63200;48.810;12.352;2023-07-20T02:30:23;97152.31;;;17.39;65.08
74675;BME280;63200;48.810;12.352;2023-07-20T02:32:48;97147.03;;;17.34;65.10
74675;BME280;63200;48.810;12.352;2023-07-20T02:35:14;97151.59;;;17.29;65.08
74675;BME280;63200;48.810;12.352;2023-07-20T02:37:40;97150.53;;;17.22;65.37
74675;BME280;63200;48.810;12.352;2023-07-20T02:40:06;97152.00;;;17.19;65.17
74675;BME280;63200;48.810;12.352;2023-07-20T02:42:32;97149.00;;;17.12;65.64
74675;BME280;63200;48.810;12.352;2023-07-20T02:44:58;97157.75;;;17.05;66.12
74675;BME280;63200;48.810;12.352;2023-07-20T02:47:23;97157.75;;;17.05;66.24
74675;BME280;63200;48.810;12.352;2023-07-20T02:49:49;97152.59;;;17.04;66.33
74675;BME280;63200;48.810;12.352;2023-07-20T02:52:14;97163.91;;;17.02;66.66
74675;BME280;63200;48.810;12.352;2023-07-20T02:54:39;97162.50;;;16.96;66.77
74675;BME280;63200;48.810;12.352;2023-07-20T02:57:05;97162.88;;;16.86;66.87
74675;BME280;63200;48.810;12.352;2023-07-20T02:59:30;97174.69;;;16.77;67.27
74675;BME280;63200;48.810;12.352;2023-07-20T03:01:56;97176.69;;;16.68;67.54
74675;BME280;63200;48.810;12.352;2023-07-20T03:04:23;97168.00;;;16.66;67.65
74675;BME280;63200;48.810;12.352;2023-07-20T03:06:48;97179.25;;;16.73;67.57
74675;BME280;63200;48.810;12.352;2023-07-20T03:09:13;97172.09;;;16.81;67.51
74675;BME280;63200;48.810;12.352;2023-07-20T03:11:40;97131.63;;;16.57;67.33
74675;BME280;63200;48.810;12.352;2023-07-20T03:14:05;97168.91;;;16.79;67.33
74675;BME280;63200;48.810;12.352;2023-07-20T03:16:31;97173.31;;;16.71;67.73
74675;BME280;63200;48.810;12.352;2023-07-20T03:18:58;97177.03;;;16.66;67.92
74675;BME280;63200;48.810;12.352;2023-07-20T03:21:24;97185.25;;;16.66;68.30
74675;BME280;63200;48.810;12.352;2023-07-20T03:23:49;97182.91;;;16.77;67.94
74675;BME280;63200;48.810;12.352;2023-07-20T03:26:15;97185.44;;;16.91;67.57
74675;BME280;63200;48.810;12.352;2023-07-20T03:28:40;97186.97;;;17.01;67.29
74675;BME280;63200;48.810;12.352;2023-07-20T03:31:06;97190.53;;;17.02;67.52
74675;BME280;63200;48.810;12.352;2023-07-20T03:33:31;97195.34;;;17.05;67.49
74675;BME280;63200;48.810;12.352;2023-07-20T03:35:57;97186.34;;;17.04;67.71
74675;BME280;63200;48.810;12.352;2023-07-20T03:38:23;97190.66;;;17.05;67.73
74675;BME280;63200;48.810;12.352;2023-07-20T03:40:53;97194.38;;;17.09;67.70
74675;BME280;63200;48.810;12.352;2023-07-20T03:43:19;97192.56;;;17.13;67.57
74675;BME280;63200;48.810;12.352;2023-07-20T03:45:45;97187.31;;;17.21;67.36
74675;BME280;63200;48.810;12.352;2023-07-20T03:48:15;97187.13;;;17.26;67.24
74675;BME280;63200;48.810;12.352;2023-07-20T03:50:41;97188.41;;;17.28;66.89
74675;BME280;63200;48.810;12.352;2023-07-20T03:53:06;97194.03;;;17.32;66.80
74675;BME280;63200;48.810;12.352;2023-07-20T03:55:32;97188.00;;;17.39;66.57
74675;BME280;63200;48.810;12.352;2023-07-20T03:57:57;97184.34;;;17.47;66.02
74675;BME280;63200;48.810;12.352;2023-07-20T04:00:22;97192.38;;;17.52;65.87
74675;BME280;63200;48.810;12.352;2023-07-20T04:02:48;97188.75;;;17.60;66.12
74675;BME280;63200;48.810;12.352;2023-07-20T04:05:13;97190.81;;;17.63;65.48
74675;BME280;63200;48.810;12.352;2023-07-20T04:07:39;97195.44;;;17.72;65.36
74675;BME280;63200;48.810;12.352;2023-07-20T04:10:04;97190.53;;;17.77;65.24
74675;BME280;63200;48.810;12.352;2023-07-20T04:12:30;97201.75;;;17.85;65.02
74675;BME280;63200;48.810;12.352;2023-07-20T04:14:55;97200.91;;;17.93;64.59
74675;BME280;63200;48.810;12.352;2023-07-20T04:17:20;97205.00;;;17.99;64.50
74675;BME280;63200;48.810;12.352;2023-07-20T04:19:46;97207.88;;;18.03;64.46
74675;BME280;63200;48.810;12.352;2023-07-20T04:22:11;97211.56;;;18.07;64.45
74675;BME280;63200;48.810;12.352;2023-07-20T04:24:36;97211.91;;;18.05;64.38
74675;BME280;63200;48.810;12.352;2023-07-20T04:27:02;97220.63;;;18.07;64.36
74675;BME280;63200;48.810;12.352;2023-07-20T04:29:27;97212.16;;;18.12;64.44
74675;BME280;63200;48.810;12.352;2023-07-20T04:31:53;97215.00;;;18.16;64.22
74675;BME280;63200;48.810;12.352;2023-07-20T04:34:18;97228.41;;;18.18;64.06
74675;BME280;63200;48.810;12.352;2023-07-20T04:36:44;97219.84;;;18.19;63.90
74675;BME280;63200;48.810;12.352;2023-07-20T04:39:10;97217.41;;;18.18;63.87
74675;BME280;63200;48.810;12.352;2023-07-20T04:41:35;97219.16;;;18.22;63.76
74675;BME280;63200;48.810;12.352;2023-07-20T04:44:01;97216.06;;;18.24;63.25
74675;BME280;63200;48.810;12.352;2023-07-20T04:46:26;97211.94;;;18.30;61.93
74675;BME280;63200;48.810;12.352;2023-07-20T04:48:51;97215.84;;;18.29;60.85
74675;BME280;63200;48.810;12.352;2023-07-20T04:51:17;97223.72;;;18.43;60.23
74675;BME280;63200;48.810;12.352;2023-07-20T04:53:46;97223.63;;;18.52;59.05
74675;BME280;63200;48.810;12.352;2023-07-20T04:56:11;97218.81;;;18.61;57.99
74675;BME280;63200;48.810;12.352;2023-07-20T04:58:37;97218.81;;;18.61;57.82
74675;BME280;63200;48.810;12.352;2023-07-20T05:01:02;97221.22;;;18.62;56.69
74675;BME280;63200;48.810;12.352;2023-07-20T05:03:27;97220.56;;;18.65;56.09
74675;BME280;63200;48.810;12.352;2023-07-20T05:05:53;97223.63;;;18.64;54.99
74675;BME280;63200;48.810;12.352;2023-07-20T05:08:19;97180.34;;;18.36;54.65
74675;BME280;63200;48.810;12.352;2023-07-20T05:10:44;97234.09;;;18.71;54.02
74675;BME280;63200;48.810;12.352;2023-07-20T05:13:10;97226.28;;;18.73;53.72
74675;BME280;63200;48.810;12.352;2023-07-20T05:15:35;97222.38;;;18.74;53.05
74675;BME280;63200;48.810;12.352;2023-07-20T05:18:00;97229.00;;;18.85;52.80
74675;BME280;63200;48.810;12.352;2023-07-20T05:20:26;97160.41;;;18.52;52.85
74675;BME280;63200;48.810;12.352;2023-07-20T05:22:52;97206.00;;;18.90;52.94
74675;BME280;63200;48.810;12.352;2023-07-20T05:25:18;97231.44;;;18.99;52.35
74675;BME280;63200;48.810;12.352;2023-07-20T05:27:44;97208.88;;;18.93;52.28
74675;BME280;63200;48.810;12.352;2023-07-20T05:30:11;97232.81;;;19.05;51.77
74675;BME280;63200;48.810;12.352;2023-07-20T05:32:37;97228.78;;;19.15;51.93
74675;BME280;63200;48.810;12.352;2023-07-20T05:35:02;97221.66;;;19.26;51.92
74675;BME280;63200;48.810;12.352;2023-07-20T05:37:28;97227.34;;;19.34;52.33
74675;BME280;63200;48.810;12.352;2023-07-20T05:39:53;97235.03;;;19.40;52.25
74675;BME280;63200;48.810;12.352;2023-07-20T05:42:19;97229.81;;;19.51;51.39
74675;BME280;63200;48.810;12.352;2023-07-20T05:44:44;97240.22;;;19.58;51.37
74675;BME280;63200;48.810;12.352;2023-07-20T05:47:09;97241.66;;;19.52;51.52
74675;BME280;63200;48.810;12.352;2023-07-20T05:49:35;97238.25;;;19.42;51.28
74675;BME280;63200;48.810;12.352;2023-07-20T05:52:01;97243.81;;;19.58;51.48
74675;BME280;63200;48.810;12.352;2023-07-20T05:54:26;97197.59;;;19.11;51.38
74675;BME280;63200;48.810;12.352;2023-07-20T05:56:52;97201.47;;;19.22;51.35
74675;BME280;63200;48.810;12.352;2023-07-20T05:59:18;97252.63;;;19.64;51.07
74675;BME280;63200;48.810;12.352;2023-07-20T06:01:44;97250.59;;;19.48;51.33
74675;BME280;63200;48.810;12.352;2023-07-20T06:04:09;97249.97;;;19.68;51.41
74675;BME280;63200;48.810;12.352;2023-07-20T06:06:35;97259.50;;;19.58;51.65
74675;BME280;63200;48.810;12.352;2023-07-20T06:09:00;97256.69;;;19.83;51.56
74675;BME280;63200;48.810;12.352;2023-07-20T06:11:29;97256.56;;;19.79;51.32
74675;BME280;63200;48.810;12.352;2023-07-20T06:13:56;97262.31;;;19.86;51.41
74675;BME280;63200;48.810;12.352;2023-07-20T06:16:21;97262.78;;;20.04;51.11
74675;BME280;63200;48.810;12.352;2023-07-20T06:18:46;97260.25;;;20.11;51.26
74675;BME280;63200;48.810;12.352;2023-07-20T06:21:12;97266.94;;;19.82;52.05
74675;BME280;63200;48.810;12.352;2023-07-20T06:23:38;97269.25;;;19.68;51.95
74675;BME280;63200;48.810;12.352;2023-07-20T06:26:05;97276.44;;;19.85;52.67
74675;BME280;63200;48.810;12.352;2023-07-20T06:28:31;97264.25;;;19.86;52.29
74675;BME280;63200;48.810;12.352;2023-07-20T06:31:01;97267.25;;;19.80;52.17
74675;BME280;63200;48.810;12.352;2023-07-20T06:33:26;97273.03;;;20.04;52.14
74675;BME280;63200;48.810;12.352;2023-07-20T06:35:51;97264.28;;;20.30;51.62
74675;BME280;63200;48.810;12.352;2023-07-20T06:38:18;97269.88;;;20.50;51.08
74675;BME280;63200;48.810;12.352;2023-07-20T06:40:43;97281.81;;;20.38;51.81
74675;BME280;63200;48.810;12.352;2023-07-20T06:43:10;97273.56;;;20.09;52.42
74675;BME280;63200;48.810;12.352;2023-07-20T06:45:36;97281.56;;;20.14;51.84
74675;BME280;63200;48.810;12.352;2023-07-20T06:48:01;97278.31;;;20.41;51.81
74675;BME280;63200;48.810;12.352;2023-07-20T06:50:27;97275.31;;;20.62;51.33
74675;BME280;63200;48.810;12.352;2023-07-20T06:52:52;97278.81;;;20.91;50.81
74675;BME280;63200;48.810;12.352;2023-07-20T06:55:17;97284.94;;;21.00;50.14
74675;BME280;63200;48.810;12.352;2023-07-20T06:57:43;97285.97;;;21.27;49.96
74675;BME280;63200;48.810;12.352;2023-07-20T07:00:09;97281.91;;;21.41;50.12
74675;BME280;63200;48.810;12.352;2023-07-20T07:02:34;97278.91;;;21.30;49.89
74675;BME280;63200;48.810;12.352;2023-07-20T07:04:59;97280.06;;;21.29;50.34
74675;BME280;63200;48.810;12.352;2023-07-20T07:07:25;97284.06;;;20.96;50.93
74675;BME280;63200;48.810;12.352;2023-07-20T07:09:50;97280.69;;;20.71;51.61
74675;BME280;63200;48.810;12.352;2023-07-20T07:12:15;97279.94;;;20.90;51.33
74675;BME280;63200;48.810;12.352;2023-07-20T07:14:41;97275.47;;;21.72;50.35
74675;BME280;63200;48.810;12.352;2023-07-20T07:17:06;97279.00;;;21.89;48.73
74675;BME280;63200;48.810;12.352;2023-07-20T07:19:32;97278.50;;;22.26;48.26
74675;BME280;63200;48.810;12.352;2023-07-20T07:21:57;97288.41;;;22.27;47.91
74675;BME280;63200;48.810;12.352;2023-07-20T07:24:22;97288.34;;;22.23;47.90
74675;BME280;63200;48.810;12.352;2023-07-20T07:26:48;97283.28;;;22.72;47.43
74675;BME280;63200;48.810;12.352;2023-07-20T07:29:13;97294.16;;;23.07;47.02
74675;BME280;63200;48.810;12.352;2023-07-20T07:31:38;97289.22;;;23.20;46.07
74675;BME280;63200;48.810;12.352;2023-07-20T07:34:04;97241.50;;;22.80;45.52
74675;BME280;63200;48.810;12.352;2023-07-20T07:36:30;97298.25;;;22.94;45.69
74675;BME280;63200;48.810;12.352;2023-07-20T07:38:56;97294.97;;;22.61;46.26
74675;BME280;63200;48.810;12.352;2023-07-20T07:41:21;97289.72;;;23.26;45.30
74675;BME280;63200;48.810;12.352;2023-07-20T07:43:47;97291.88;;;23.70;44.28
74675;BME280;63200;48.810;12.352;2023-07-20T07:46:13;97268.78;;;23.59;43.87
74675;BME280;63200;48.810;12.352;2023-07-20T07:48:39;97302.44;;;23.61;43.47
74675;BME280;63200;48.810;12.352;2023-07-20T07:51:04;97292.91;;;23.89;42.46
74675;BME280;63200;48.810;12.352;2023-07-20T07:53:30;97297.16;;;24.51;42.16
74675;BME280;63200;48.810;12.352;2023-07-20T07:55:57;97302.31;;;24.93;40.21
74675;BME280;63200;48.810;12.352;2023-07-20T07:58:22;97302.72;;;24.92;40.38
74675;BME280;63200;48.810;12.352;2023-07-20T08:00:48;97299.41;;;24.75;39.61
74675;BME280;63200;48.810;12.352;2023-07-20T08:03:13;97306.47;;;25.14;39.19
74675;BME280;63200;48.810;12.352;2023-07-20T08:05:39;97303.63;;;25.66;38.20
74675;BME280;63200;48.810;12.352;2023-07-20T08:08:04;97301.28;;;25.72;38.80
74675;BME280;63200;48.810;12.352;2023-07-20T08:10:30;97300.75;;;26.40;37.27
74675;BME280;63200;48.810;12.352;2023-07-20T08:12:56;97300.97;;;25.88;37.66
74675;BME280;63200;48.810;12.352;2023-07-20T08:15:21;97277.03;;;25.69;36.79
74675;BME280;63200;48.810;12.352;2023-07-20T08:17:47;97292.75;;;25.36;38.32
74675;BME280;63200;48.810;12.352;2023-07-20T08:20:14;97285.66;;;24.90;39.19
74675;BME280;63200;48.810;12.352;2023-07-20T08:22:39;97299.53;;;26.23;37.49
74675;BME280;63200;48.810;12.352;2023-07-20T08:25:08;97302.44;;;26.95;36.25
74675;BME280;63200;48.810;12.352;2023-07-20T08:27:34;97305.53;;;26.36;36.06
74675;BME280;63200;48.810;12.352;2023-07-20T08:30:00;97267.75;;;26.27;36.39
74675;BME280;63200;48.810;12.352;2023-07-20T08:32:26;97263.00;;;26.57;35.42
74675;BME280;63200;48.810;12.352;2023-07-20T08:34:51;97306.41;;;27.37;34.82
74675;BME280;63200;48.810;12.352;2023-07-20T08:37:16;97305.22;;;27.20;33.63
74675;BME280;63200;48.810;12.352;2023-07-20T08:39:42;97304.72;;;26.28;35.13
74675;BME280;63200;48.810;12.352;2023-07-20T08:42:08;97305.16;;;26.63;35.35
74675;BME280;63200;48.810;12.352;2023-07-20T08:44:35;97301.41;;;25.97;36.49
74675;BME280;63200;48.810;12.352;2023-07-20T08:47:02;97305.19;;;25.01;37.91
74675;BME280;63200;48.810;12.352;2023-07-20T08:49:34;97287.34;;;24.57;37.28
74675;BME280;63200;48.810;12.352;2023-07-20T08:51:59;97308.13;;;23.99;37.89
74675;BME280;63200;48.810;12.352;2023-07-20T08:54:28;97298.28;;;24.42;38.55
74675;BME280;63200;48.810;12.352;2023-07-20T08:56:56;97293.63;;;25.51;37.08
74675;BME280;63200;48.810;12.352;2023-07-20T08:59:23;97295.59;;;26.56;35.40
74675;BME280;63200;48.810;12.352;2023-07-20T09:01:50;97285.34;;;25.61;36.32
74675;BME280;63200;48.810;12.352;2023-07-20T09:04:16;97289.63;;;25.44;37.47
74675;BME280;63200;48.810;12.352;2023-07-20T09:06:42;97295.16;;;26.33;35.91
74675;BME280;63200;48.810;12.352;2023-07-20T09:09:07;97295.66;;;27.10;33.55
74675;BME280;63200;48.810;12.352;2023-07-20T09:11:32;97284.09;;;27.26;33.25
74675;BME280;63200;48.810;12.352;2023-07-20T09:14:06;97284.78;;;27.74;32.92
74675;BME280;63200;48.810;12.352;2023-07-20T09:16:31;97289.00;;;28.22;32.07
74675;BME280;63200;48.810;12.352;2023-07-20T09:19:00;97290.81;;;27.58;32.62
74675;BME280;63200;48.810;12.352;2023-07-20T09:21:29;97252.63;;;26.25;34.22
74675;BME280;63200;48.810;12.352;2023-07-20T09:23:56;97287.41;;;25.79;34.95
74675;BME280;63200;48.810;12.352;2023-07-20T09:26:21;97288.06;;;24.95;36.54
74675;BME280;63200;48.810;12.352;2023-07-20T09:28:49;97292.50;;;24.58;38.04
74675;BME280;63200;48.810;12.352;2023-07-20T09:31:19;97268.66;;;25.58;36.43
74675;BME280;63200;48.810;12.352;2023-07-20T09:33:49;97288.84;;;26.47;34.90
74675;BME280;63200;48.810;12.352;2023-07-20T09:36:16;97291.81;;;25.80;35.81
74675;BME280;63200;48.810;12.352;2023-07-20T09:38:42;97297.91;;;24.85;37.00
74675;BME280;63200;48.810;12.352;2023-07-20T09:41:13;97292.00;;;24.90;36.32
74675;BME280;63200;48.810;12.352;2023-07-20T09:43:38;97282.53;;;27.07;34.94
74675;BME280;63200;48.810;12.352;2023-07-20T09:46:05;97281.63;;;27.72;32.13
74675;BME280;63200;48.810;12.352;2023-07-20T09:48:30;97282.41;;;27.69;32.43
74675;BME280;63200;48.810;12.352;2023-07-20T09:50:56;97258.97;;;26.15;32.82
74675;BME280;63200;48.810;12.352;2023-07-20T09:53:24;97252.03;;;25.72;32.54
74675;BME280;63200;48.810;12.352;2023-07-20T09:55:49;97285.25;;;26.50;30.47
74675;BME280;63200;48.810;12.352;2023-07-20T09:58:16;97256.47;;;25.84;32.24
74675;BME280;63200;48.810;12.352;2023-07-20T10:00:42;97272.16;;;26.57;31.56
74675;BME280;63200;48.810;12.352;2023-07-20T10:03:10;97285.31;;;26.89;31.30
74675;BME280;63200;48.810;12.352;2023-07-20T10:05:40;97277.63;;;27.76;28.49
74675;BME280;63200;48.810;12.352;2023-07-20T10:08:11;97280.84;;;28.53;27.38
74675;BME280;63200;48.810;12.352;2023-07-20T10:10:38;97278.47;;;28.51;28.03
74675;BME280;63200;48.810;12.352;2023-07-20T10:13:08;97281.59;;;28.61;27.78
74675;BME280;63200;48.810;12.352;2023-07-20T10:15:46;97274.13;;;27.36;28.68
74675;BME280;63200;48.810;12.352;2023-07-20T10:18:30;97279.22;;;27.74;28.40
74675;BME280;63200;48.810;12.352;2023-07-20T10:20:56;97277.34;;;26.84;29.13
74675;BME280;63200;48.810;12.352;2023-07-20T10:23:24;97274.47;;;26.23;29.85
74675;BME280;63200;48.810;12.352;2023-07-20T10:25:52;97274.41;;;26.05;30.79
74675;BME280;63200;48.810;12.352;2023-07-20T10:28:18;97270.56;;;27.29;29.51
74675;BME280;63200;48.810;12.352;2023-07-20T10:30:44;97268.13;;;26.19;30.27
74675;BME280;63200;48.810;12.352;2023-07-20T10:33:11;97243.78;;;27.74;28.97
74675;BME280;63200;48.810;12.352;2023-07-20T10:35:57;97264.41;;;29.56;26.19
74675;BME280;63200;48.810;12.352;2023-07-20T10:38:42;97257.69;;;29.85;26.31
74675;BME280;63200;48.810;12.352;2023-07-20T10:41:32;97255.03;;;30.05;26.01
74675;BME280;63200;48.810;12.352;2023-07-20T10:44:06;97255.75;;;30.40;26.21
74675;BME280;63200;48.810;12.352;2023-07-20T10:49:05;97264.13;;;28.46;26.97
74675;BME280;63200;48.810;12.352;2023-07-20T10:51:39;97250.50;;;29.04;26.01
74675;BME280;63200;48.810;12.352;2023-07-20T10:56:55;97260.06;;;27.83;27.63
74675;BME280;63200;48.810;12.352;2023-07-20T11:01:56;97258.22;;;26.47;30.11
74675;BME280;63200;48.810;12.352;2023-07-20T11:04:41;97248.66;;;26.22;30.38
74675;BME280;63200;48.810;12.352;2023-07-20T11:07:07;97230.47;;;25.48;31.06
74675;BME280;63200;48.810;12.352;2023-07-20T11:09:37;97253.38;;;25.26;31.63
74675;BME280;63200;48.810;12.352;2023-07-20T11:12:17;97249.91;;;25.44;31.20
74675;BME280;63200;48.810;12.352;2023-07-20T11:15:03;97244.28;;;27.26;29.54
74675;BME280;63200;48.810;12.352;2023-07-20T11:17:30;97239.09;;;27.32;27.34
74675;BME280;63200;48.810;12.352;2023-07-20T11:19:57;97238.09;;;27.96;26.24
74675;BME280;63200;48.810;12.352;2023-07-20T11:22:23;97238.28;;;29.36;26.08
74675;BME280;63200;48.810;12.352;2023-07-20T11:24:48;97237.28;;;28.59;26.05
74675;BME280;63200;48.810;12.352;2023-07-20T11:27:17;97254.22;;;27.49;26.61
74675;BME280;63200;48.810;12.352;2023-07-20T11:29:47;97246.00;;;28.75;26.76
74675;BME280;63200;48.810;12.352;2023-07-20T11:32:20;97228.97;;;27.85;25.82
74675;BME280;63200;48.810;12.352;2023-07-20T11:34:47;97231.31;;;27.93;26.99
74675;BME280;63200;48.810;12.352;2023-07-20T11:37:13;97226.88;;;28.14;26.60
74675;BME280;63200;48.810;12.352;2023-07-20T11:39:38;97225.66;;;29.86;25.92
74675;BME280;63200;48.810;12.352;2023-07-20T11:42:04;97216.59;;;29.44;25.01
74675;BME280;63200;48.810;12.352;2023-07-20T11:44:30;97220.28;;;27.68;26.76
74675;BME280;63200;48.810;12.352;2023-07-20T11:47:07;97215.66;;;27.04;27.09
74675;BME280;63200;48.810;12.352;2023-07-20T11:49:37;97219.38;;;27.93;27.21
74675;BME280;63200;48.810;12.352;2023-07-20T11:52:04;97227.75;;;29.78;26.11
74675;BME280;63200;48.810;12.352;2023-07-20T11:54:30;97174.31;;;30.54;23.88
74675;BME280;63200;48.810;12.352;2023-07-20T11:56:56;97217.06;;;29.73;24.53
74675;BME280;63200;48.810;12.352;2023-07-20T11:59:21;97215.31;;;29.14;26.17
74675;BME280;63200;48.810;12.352;2023-07-20T12:01:47;97208.09;;;30.16;23.33
74675;BME280;63200;48.810;12.352;2023-07-20T12:04:12;97176.97;;;29.49;24.68
74675;BME280;63200;48.810;12.352;2023-07-20T12:06:38;97206.16;;;28.01;26.87
74675;BME280;63200;48.810;12.352;2023-07-20T12:09:03;97205.34;;;28.11;26.03
74675;BME280;63200;48.810;12.352;2023-07-20T12:11:36;97199.31;;;29.14;25.50
74675;BME280;63200;48.810;12.352;2023-07-20T12:14:03;97189.06;;;30.04;24.73
74675;BME280;63200;48.810;12.352;2023-07-20T12:16:30;97190.28;;;31.05;23.56
74675;BME280;63200;48.810;12.352;2023-07-20T12:19:24;97200.28;;;31.26;21.38
74675;BME280;63200;48.810;12.352;2023-07-20T12:21:50;97182.09;;;30.43;23.57
74675;BME280;63200;48.810;12.352;2023-07-20T12:24:17;97186.59;;;30.10;22.23
74675;BME280;63200;48.810;12.352;2023-07-20T12:26:43;97179.13;;;29.99;22.50
74675;BME280;63200;48.810;12.352;2023-07-20T12:29:08;97183.81;;;29.79;22.37
74675;BME280;63200;48.810;12.352;2023-07-20T12:31:36;97185.19;;;29.63;22.62
74675;BME280;63200;48.810;12.352;2023-07-20T12:34:01;97174.09;;;30.18;22.87
74675;BME280;63200;48.810;12.352;2023-07-20T12:36:27;97171.81;;;30.60;22.21
74675;BME280;63200;48.810;12.352;2023-07-20T12:38:52;97171.72;;;30.40;22.12
74675;BME280;63200;48.810;12.352;2023-07-20T12:41:17;97176.06;;;31.16;21.96
74675;BME280;63200;48.810;12.352;2023-07-20T12:43:44;97162.19;;;31.69;21.80
74675;BME280;63200;48.810;12.352;2023-07-20T12:46:11;97151.91;;;31.99;19.91
74675;BME280;63200;48.810;12.352;2023-07-20T12:48:37;97170.69;;;31.45;21.76
74675;BME280;63200;48.810;12.352;2023-07-20T12:51:03;97173.84;;;31.03;20.36
74675;BME280;63200;48.810;12.352;2023-07-20T12:53:30;97170.44;;;29.24;22.59
74675;BME280;63200;48.810;12.352;2023-07-20T12:55:56;97165.72;;;29.21;23.29
74675;BME280;63200;48.810;12.352;2023-07-20T12:58:21;97170.97;;;30.63;21.39
74675;BME280;63200;48.810;12.352;2023-07-20T13:00:47;97165.44;;;31.03;20.69
74675;BME280;63200;48.810;12.352;2023-07-20T13:03:12;97152.84;;;31.15;20.39
74675;BME280;63200;48.810;12.352;2023-07-20T13:05:38;97154.56;;;31.49;21.19